sensor_id;sensor_type;location;lat;lon;timestamp;pressure;altitude;pressure_sealevel;temperature
49785;BMP280;35679;38.732;-121.358;2022-07-29T00:00:19;100378.91;;;27.13
49785;BMP280;35679;38.732;-121.358;2022-07-29T00:03:08;100370.56;;;27.09
49785;BMP280;35679;38.732;-121.358;2022-07-29T00:05:58;100365.50;;;26.98
49785;BMP280;35679;38.732;-121.358;2022-07-29T00:08:47;100372.53;;;26.94
49785;BMP280;35679;38.732;-121.358;2022-07-29T00:11:37;100370.91;;;26.93
49785;BMP280;35679;38.732;-121.358;2022-07-29T00:14:29;100365.25;;;26.89
49785;BMP280;35679;38.732;-121.358;2022-07-29T00:17:18;100371.56;;;26.80
49785;BMP280;35679;38.732;-121.358;2022-07-29T00:20:09;100369.91;;;26.84
49785;BMP280;35679;38.732;-121.358;2022-07-29T00:22:58;100366.97;;;26.75
49785;BMP280;35679;38.732;-121.358;2022-07-29T00:25:48;100365.88;;;26.76
49785;BMP280;35679;38.732;-121.358;2022-07-29T00:28:37;100368.34;;;26.73
49785;BMP280;35679;38.732;-121.358;2022-07-29T00:31:27;100371.09;;;26.68
49785;BMP280;35679;38.732;-121.358;2022-07-29T00:34:17;100368.69;;;26.61
49785;BMP280;35679;38.732;-121.358;2022-07-29T00:37:44;100368.97;;;26.55
49785;BMP280;35679;38.732;-121.358;2022-07-29T00:40:34;100359.09;;;26.79
49785;BMP280;35679;38.732;-121.358;2022-07-29T00:43:26;100357.06;;;27.04
49785;BMP280;35679;38.732;-121.358;2022-07-29T00:46:15;100361.72;;;27.27
49785;BMP280;35679;38.732;-121.358;2022-07-29T00:49:05;100359.72;;;27.42
49785;BMP280;35679;38.732;-121.358;2022-07-29T00:51:57;100358.22;;;27.55
49785;BMP280;35679;38.732;-121.358;2022-07-29T00:54:46;100355.94;;;27.67
49785;BMP280;35679;38.732;-121.358;2022-07-29T00:57:36;100358.84;;;27.75
49785;BMP280;35679;38.732;-121.358;2022-07-29T01:00:29;100353.91;;;27.82
49785;BMP280;35679;38.732;-121.358;2022-07-29T01:03:19;100364.41;;;27.88
49785;BMP280;35679;38.732;-121.358;2022-07-29T01:06:09;100365.97;;;27.94
49785;BMP280;35679;38.732;-121.358;2022-07-29T01:08:59;100366.72;;;28.00
49785;BMP280;35679;38.732;-121.358;2022-07-29T01:11:49;100356.09;;;28.03
49785;BMP280;35679;38.732;-121.358;2022-07-29T01:14:39;100354.94;;;28.09
49785;BMP280;35679;38.732;-121.358;2022-07-29T01:30:17;100335.31;;;28.41
49785;BMP280;35679;38.732;-121.358;2022-07-29T01:33:13;100347.97;;;28.45
49785;BMP280;35679;38.732;-121.358;2022-07-29T01:36:43;100343.09;;;28.47
49785;BMP280;35679;38.732;-121.358;2022-07-29T01:39:36;100344.41;;;28.50
49785;BMP280;35679;38.732;-121.358;2022-07-29T01:42:36;100339.19;;;28.53
49785;BMP280;35679;38.732;-121.358;2022-07-29T01:45:38;100338.59;;;28.56
49785;BMP280;35679;38.732;-121.358;2022-07-29T01:48:40;100338.03;;;28.59
49785;BMP280;35679;38.732;-121.358;2022-07-29T01:51:36;100345.06;;;28.60
49785;BMP280;35679;38.732;-121.358;2022-07-29T01:54:39;100354.53;;;28.62
49785;BMP280;35679;38.732;-121.358;2022-07-29T01:57:36;100350.72;;;28.63
49785;BMP280;35679;38.732;-121.358;2022-07-29T02:00:26;100341.47;;;28.64
49785;BMP280;35679;38.732;-121.358;2022-07-29T02:03:17;100346.59;;;28.66
49785;BMP280;35679;38.732;-121.358;2022-07-29T02:06:09;100351.75;;;28.67
49785;BMP280;35679;38.732;-121.358;2022-07-29T02:09:00;100348.75;;;28.69
49785;BMP280;35679;38.732;-121.358;2022-07-29T02:11:56;100349.53;;;28.69
49785;BMP280;35679;38.732;-121.358;2022-07-29T02:14:50;100351.16;;;28.70
49785;BMP280;35679;38.732;-121.358;2022-07-29T02:17:44;100343.81;;;28.71
49785;BMP280;35679;38.732;-121.358;2022-07-29T02:20:36;100344.34;;;28.73
49785;BMP280;35679;38.732;-121.358;2022-07-29T02:23:27;100342.41;;;28.73
49785;BMP280;35679;38.732;-121.358;2022-07-29T02:26:20;100352.19;;;28.74
49785;BMP280;35679;38.732;-121.358;2022-07-29T02:29:12;100358.47;;;28.75
49785;BMP280;35679;38.732;-121.358;2022-07-29T02:32:04;100361.69;;;28.77
49785;BMP280;35679;38.732;-121.358;2022-07-29T02:34:56;100360.59;;;28.78
49785;BMP280;35679;38.732;-121.358;2022-07-29T02:37:47;100356.47;;;28.80
49785;BMP280;35679;38.732;-121.358;2022-07-29T02:40:58;100355.69;;;28.80
49785;BMP280;35679;38.732;-121.358;2022-07-29T02:43:54;100365.72;;;28.79
49785;BMP280;35679;38.732;-121.358;2022-07-29T02:47:16;100361.09;;;28.80
49785;BMP280;35679;38.732;-121.358;2022-07-29T02:50:22;100356.47;;;28.80
49785;BMP280;35679;38.732;-121.358;2022-07-29T02:53:20;100358.88;;;28.82
49785;BMP280;35679;38.732;-121.358;2022-07-29T02:56:14;100364.63;;;28.80
49785;BMP280;35679;38.732;-121.358;2022-07-29T02:59:11;100363.53;;;28.81
49785;BMP280;35679;38.732;-121.358;2022-07-29T03:02:02;100364.91;;;28.79
49785;BMP280;35679;38.732;-121.358;2022-07-29T03:04:55;100374.69;;;28.80
49785;BMP280;35679;38.732;-121.358;2022-07-29T03:08:04;100370.66;;;28.77
49785;BMP280;35679;38.732;-121.358;2022-07-29T03:10:55;100364.38;;;28.77
49785;BMP280;35679;38.732;-121.358;2022-07-29T03:13:45;100360.06;;;28.76
49785;BMP280;35679;38.732;-121.358;2022-07-29T03:16:35;100356.09;;;28.87
49785;BMP280;35679;38.732;-121.358;2022-07-29T03:19:28;100372.28;;;28.73
49785;BMP280;35679;38.732;-121.358;2022-07-29T03:22:18;100382.34;;;28.73
49785;BMP280;35679;38.732;-121.358;2022-07-29T03:25:12;100379.94;;;28.71
49785;BMP280;35679;38.732;-121.358;2022-07-29T03:28:03;100375.28;;;28.72
49785;BMP280;35679;38.732;-121.358;2022-07-29T03:30:53;100391.09;;;28.70
49785;BMP280;35679;38.732;-121.358;2022-07-29T03:33:44;100382.13;;;28.69
49785;BMP280;35679;38.732;-121.358;2022-07-29T03:36:33;100391.34;;;28.68
49785;BMP280;35679;38.732;-121.358;2022-07-29T03:39:25;100393.28;;;28.68
49785;BMP280;35679;38.732;-121.358;2022-07-29T03:42:18;100395.47;;;28.66
49785;BMP280;35679;38.732;-121.358;2022-07-29T03:45:15;100394.16;;;28.63
49785;BMP280;35679;38.732;-121.358;2022-07-29T03:48:10;100394.44;;;28.62
49785;BMP280;35679;38.732;-121.358;2022-07-29T03:51:01;100397.16;;;28.62
49785;BMP280;35679;38.732;-121.358;2022-07-29T03:53:51;100409.13;;;28.61
49785;BMP280;35679;38.732;-121.358;2022-07-29T03:56:45;100406.69;;;28.59
49785;BMP280;35679;38.732;-121.358;2022-07-29T03:59:36;100417.03;;;28.57
49785;BMP280;35679;38.732;-121.358;2022-07-29T04:02:27;100422.75;;;28.56
49785;BMP280;35679;38.732;-121.358;2022-07-29T04:05:18;100421.44;;;28.53
49785;BMP280;35679;38.732;-121.358;2022-07-29T04:08:07;100416.84;;;28.54
49785;BMP280;35679;38.732;-121.358;2022-07-29T04:10:57;100419.53;;;28.54
49785;BMP280;35679;38.732;-121.358;2022-07-29T04:13:46;100420.94;;;28.52
49785;BMP280;35679;38.732;-121.358;2022-07-29T04:16:36;100421.50;;;28.49
49785;BMP280;35679;38.732;-121.358;2022-07-29T04:19:25;100416.06;;;28.49
49785;BMP280;35679;38.732;-121.358;2022-07-29T04:22:15;100424.81;;;28.46
49785;BMP280;35679;38.732;-121.358;2022-07-29T04:25:04;100434.03;;;28.45
49785;BMP280;35679;38.732;-121.358;2022-07-29T04:27:55;100437.06;;;28.43
49785;BMP280;35679;38.732;-121.358;2022-07-29T04:30:52;100434.91;;;28.40
49785;BMP280;35679;38.732;-121.358;2022-07-29T04:33:41;100454.50;;;28.37
49785;BMP280;35679;38.732;-121.358;2022-07-29T04:36:34;100450.94;;;28.37
49785;BMP280;35679;38.732;-121.358;2022-07-29T04:39:25;100449.34;;;28.36
49785;BMP280;35679;38.732;-121.358;2022-07-29T04:42:17;100452.94;;;28.31
49785;BMP280;35679;38.732;-121.358;2022-07-29T04:45:14;100462.47;;;28.29
49785;BMP280;35679;38.732;-121.358;2022-07-29T04:48:09;100457.31;;;28.27
49785;BMP280;35679;38.732;-121.358;2022-07-29T04:50:59;100462.50;;;28.24
49785;BMP280;35679;38.732;-121.358;2022-07-29T04:53:48;100457.38;;;28.22
49785;BMP280;35679;38.732;-121.358;2022-07-29T04:56:37;100462.88;;;28.17
49785;BMP280;35679;38.732;-121.358;2022-07-29T04:59:27;100460.94;;;28.18
49785;BMP280;35679;38.732;-121.358;2022-07-29T05:02:16;100463.91;;;28.16
49785;BMP280;35679;38.732;-121.358;2022-07-29T05:05:06;100466.09;;;28.14
49785;BMP280;35679;38.732;-121.358;2022-07-29T05:07:55;100478.34;;;28.12
49785;BMP280;35679;38.732;-121.358;2022-07-29T05:10:45;100477.25;;;28.13
49785;BMP280;35679;38.732;-121.358;2022-07-29T05:13:34;100474.53;;;28.13
49785;BMP280;35679;38.732;-121.358;2022-07-29T05:16:33;100492.78;;;28.07
49785;BMP280;35679;38.732;-121.358;2022-07-29T05:19:23;100475.38;;;28.08
49785;BMP280;35679;38.732;-121.358;2022-07-29T05:22:12;100483.06;;;28.01
49785;BMP280;35679;38.732;-121.358;2022-07-29T05:25:02;100481.41;;;28.05
49785;BMP280;35679;38.732;-121.358;2022-07-29T05:27:56;100479.03;;;27.99
49785;BMP280;35679;38.732;-121.358;2022-07-29T05:30:46;100491.75;;;27.98
49785;BMP280;35679;38.732;-121.358;2022-07-29T05:33:37;100491.25;;;27.96
49785;BMP280;35679;38.732;-121.358;2022-07-29T05:36:27;100503.75;;;27.92
49785;BMP280;35679;38.732;-121.358;2022-07-29T05:39:16;100499.44;;;27.91
49785;BMP280;35679;38.732;-121.358;2022-07-29T05:42:12;100488.31;;;27.93
49785;BMP280;35679;38.732;-121.358;2022-07-29T05:45:02;100496.78;;;27.86
49785;BMP280;35679;38.732;-121.358;2022-07-29T05:47:52;100496.47;;;27.88
49785;BMP280;35679;38.732;-121.358;2022-07-29T05:50:41;100504.34;;;27.89
49785;BMP280;35679;38.732;-121.358;2022-07-29T05:53:34;100501.97;;;27.83
49785;BMP280;35679;38.732;-121.358;2022-07-29T05:56:24;100501.41;;;27.81
49785;BMP280;35679;38.732;-121.358;2022-07-29T05:59:13;100500.34;;;27.82
49785;BMP280;35679;38.732;-121.358;2022-07-29T06:02:05;100509.34;;;27.73
49785;BMP280;35679;38.732;-121.358;2022-07-29T06:04:54;100515.56;;;27.78
49785;BMP280;35679;38.732;-121.358;2022-07-29T06:07:44;100517.47;;;27.73
49785;BMP280;35679;38.732;-121.358;2022-07-29T06:10:38;100518.06;;;27.70
49785;BMP280;35679;38.732;-121.358;2022-07-29T06:13:28;100532.94;;;27.72
49785;BMP280;35679;38.732;-121.358;2022-07-29T06:16:17;100524.28;;;27.70
49785;BMP280;35679;38.732;-121.358;2022-07-29T06:19:17;100523.47;;;27.70
49785;BMP280;35679;38.732;-121.358;2022-07-29T06:22:06;100527.84;;;27.66
49785;BMP280;35679;38.732;-121.358;2022-07-29T06:24:55;100512.16;;;27.63
49785;BMP280;35679;38.732;-121.358;2022-07-29T06:27:45;100523.56;;;27.60
49785;BMP280;35679;38.732;-121.358;2022-07-29T06:30:34;100526.78;;;27.57
49785;BMP280;35679;38.732;-121.358;2022-07-29T06:33:24;100519.81;;;27.51
49785;BMP280;35679;38.732;-121.358;2022-07-29T06:36:13;100520.03;;;27.54
49785;BMP280;35679;38.732;-121.358;2022-07-29T06:39:07;100518.22;;;27.45
49785;BMP280;35679;38.732;-121.358;2022-07-29T06:41:58;100529.56;;;27.47
49785;BMP280;35679;38.732;-121.358;2022-07-29T06:44:48;100525.03;;;27.42
49785;BMP280;35679;38.732;-121.358;2022-07-29T06:47:38;100533.38;;;27.46
49785;BMP280;35679;38.732;-121.358;2022-07-29T06:50:27;100525.28;;;27.41
49785;BMP280;35679;38.732;-121.358;2022-07-29T06:53:17;100530.22;;;27.34
49785;BMP280;35679;38.732;-121.358;2022-07-29T06:56:07;100521.53;;;27.32
49785;BMP280;35679;38.732;-121.358;2022-07-29T06:59:01;100523.47;;;27.31
49785;BMP280;35679;38.732;-121.358;2022-07-29T07:01:50;100529.97;;;27.30
49785;BMP280;35679;38.732;-121.358;2022-07-29T07:04:40;100525.13;;;27.22
49785;BMP280;35679;38.732;-121.358;2022-07-29T07:07:29;100533.00;;;27.24
49785;BMP280;35679;38.732;-121.358;2022-07-29T07:10:21;100541.16;;;27.19
49785;BMP280;35679;38.732;-121.358;2022-07-29T07:13:11;100542.50;;;27.21
49785;BMP280;35679;38.732;-121.358;2022-07-29T07:16:01;100545.72;;;27.23
49785;BMP280;35679;38.732;-121.358;2022-07-29T07:18:50;100547.34;;;27.19
49785;BMP280;35679;38.732;-121.358;2022-07-29T07:21:40;100544.09;;;27.17
49785;BMP280;35679;38.732;-121.358;2022-07-29T07:24:29;100536.84;;;27.13
49785;BMP280;35679;38.732;-121.358;2022-07-29T07:27:18;100541.44;;;27.13
49785;BMP280;35679;38.732;-121.358;2022-07-29T07:30:08;100545.50;;;27.10
49785;BMP280;35679;38.732;-121.358;2022-07-29T07:32:57;100550.41;;;27.08
49785;BMP280;35679;38.732;-121.358;2022-07-29T07:35:47;100548.78;;;27.07
49785;BMP280;35679;38.732;-121.358;2022-07-29T07:38:36;100549.59;;;27.08
49785;BMP280;35679;38.732;-121.358;2022-07-29T07:41:26;100557.47;;;27.04
49785;BMP280;35679;38.732;-121.358;2022-07-29T07:44:19;100550.97;;;27.00
49785;BMP280;35679;38.732;-121.358;2022-07-29T07:47:09;100556.66;;;26.99
49785;BMP280;35679;38.732;-121.358;2022-07-29T07:49:59;100561.00;;;27.00
49785;BMP280;35679;38.732;-121.358;2022-07-29T07:52:51;100558.00;;;26.96
49785;BMP280;35679;38.732;-121.358;2022-07-29T07:55:42;100558.28;;;26.95
49785;BMP280;35679;38.732;-121.358;2022-07-29T07:58:52;100555.03;;;26.93
49785;BMP280;35679;38.732;-121.358;2022-07-29T08:01:41;100553.19;;;26.88
49785;BMP280;35679;38.732;-121.358;2022-07-29T08:04:43;100560.47;;;26.88
49785;BMP280;35679;38.732;-121.358;2022-07-29T08:07:32;100570.53;;;26.82
49785;BMP280;35679;38.732;-121.358;2022-07-29T08:10:22;100564.59;;;26.75
49785;BMP280;35679;38.732;-121.358;2022-07-29T08:13:29;100560.22;;;26.79
49785;BMP280;35679;38.732;-121.358;2022-07-29T08:16:20;100559.19;;;26.70
49785;BMP280;35679;38.732;-121.358;2022-07-29T08:19:10;100567.03;;;26.72
49785;BMP280;35679;38.732;-121.358;2022-07-29T08:21:59;100564.59;;;26.70
49785;BMP280;35679;38.732;-121.358;2022-07-29T08:24:48;100565.69;;;26.69
49785;BMP280;35679;38.732;-121.358;2022-07-29T08:27:48;100564.63;;;26.65
49785;BMP280;35679;38.732;-121.358;2022-07-29T08:30:39;100580.06;;;26.65
49785;BMP280;35679;38.732;-121.358;2022-07-29T08:33:29;100568.97;;;26.61
49785;BMP280;35679;38.732;-121.358;2022-07-29T08:36:18;100576.00;;;26.62
49785;BMP280;35679;38.732;-121.358;2022-07-29T08:39:09;100578.97;;;26.61
49785;BMP280;35679;38.732;-121.358;2022-07-29T08:41:59;100571.69;;;26.56
49785;BMP280;35679;38.732;-121.358;2022-07-29T08:44:49;100573.31;;;26.48
49785;BMP280;35679;38.732;-121.358;2022-07-29T08:47:39;100566.28;;;26.51
49785;BMP280;35679;38.732;-121.358;2022-07-29T08:50:28;100574.13;;;26.53
49785;BMP280;35679;38.732;-121.358;2022-07-29T08:53:18;100569.25;;;26.50
49785;BMP280;35679;38.732;-121.358;2022-07-29T08:56:11;100577.66;;;26.48
49785;BMP280;35679;38.732;-121.358;2022-07-29T08:59:06;100569.03;;;26.42
49785;BMP280;35679;38.732;-121.358;2022-07-29T09:02:00;100573.31;;;26.43
49785;BMP280;35679;38.732;-121.358;2022-07-29T09:04:50;100579.28;;;26.40
49785;BMP280;35679;38.732;-121.358;2022-07-29T09:07:40;100575.50;;;26.41
49785;BMP280;35679;38.732;-121.358;2022-07-29T09:10:31;100581.19;;;26.39
49785;BMP280;35679;38.732;-121.358;2022-07-29T09:13:22;100580.94;;;26.36
49785;BMP280;35679;38.732;-121.358;2022-07-29T09:16:11;100576.31;;;26.36
49785;BMP280;35679;38.732;-121.358;2022-07-29T09:19:27;100584.13;;;26.33
49785;BMP280;35679;38.732;-121.358;2022-07-29T09:22:28;100582.78;;;26.30
49785;BMP280;35679;38.732;-121.358;2022-07-29T09:25:33;100575.22;;;26.27
49785;BMP280;35679;38.732;-121.358;2022-07-29T09:28:22;100577.94;;;26.27
49785;BMP280;35679;38.732;-121.358;2022-07-29T09:31:12;100574.66;;;26.25
49785;BMP280;35679;38.732;-121.358;2022-07-29T09:34:03;100578.72;;;26.23
49785;BMP280;35679;38.732;-121.358;2022-07-29T09:36:54;100590.63;;;26.22
49785;BMP280;35679;38.732;-121.358;2022-07-29T09:39:44;100585.50;;;26.20
49785;BMP280;35679;38.732;-121.358;2022-07-29T09:42:34;100592.81;;;26.20
49785;BMP280;35679;38.732;-121.358;2022-07-29T09:48:19;100592.81;;;26.15
49785;BMP280;35679;38.732;-121.358;2022-07-29T09:51:20;100593.91;;;26.14
49785;BMP280;35679;38.732;-121.358;2022-07-29T09:54:26;100589.03;;;26.11
49785;BMP280;35679;38.732;-121.358;2022-07-29T09:57:37;100596.59;;;26.09
49785;BMP280;35679;38.732;-121.358;2022-07-29T10:00:27;100603.63;;;26.10
49785;BMP280;35679;38.732;-121.358;2022-07-29T10:03:18;100604.16;;;26.07
49785;BMP280;35679;38.732;-121.358;2022-07-29T10:06:10;100603.88;;;26.03
49785;BMP280;35679;38.732;-121.358;2022-07-29T10:09:08;100604.44;;;26.00
49785;BMP280;35679;38.732;-121.358;2022-07-29T10:12:08;100611.19;;;25.98
49785;BMP280;35679;38.732;-121.358;2022-07-29T10:15:01;100610.13;;;25.94
49785;BMP280;35679;38.732;-121.358;2022-07-29T10:17:52;100607.13;;;25.95
49785;BMP280;35679;38.732;-121.358;2022-07-29T10:20:42;100617.16;;;25.95
49785;BMP280;35679;38.732;-121.358;2022-07-29T10:23:35;100618.75;;;25.91
49785;BMP280;35679;38.732;-121.358;2022-07-29T10:26:34;100625.25;;;25.90
49785;BMP280;35679;38.732;-121.358;2022-07-29T10:29:26;100626.06;;;25.90
49785;BMP280;35679;38.732;-121.358;2022-07-29T10:36:13;100626.31;;;25.84
49785;BMP280;35679;38.732;-121.358;2022-07-29T10:44:45;100616.88;;;25.82
49785;BMP280;35679;38.732;-121.358;2022-07-29T10:47:36;100612.81;;;25.79
49785;BMP280;35679;38.732;-121.358;2022-07-29T10:50:27;100613.31;;;25.76
49785;BMP280;35679;38.732;-121.358;2022-07-29T10:53:18;100617.94;;;25.76
49785;BMP280;35679;38.732;-121.358;2022-07-29T10:56:27;100631.16;;;25.72
49785;BMP280;35679;38.732;-121.358;2022-07-29T11:06:03;100621.94;;;25.68
49785;BMP280;35679;38.732;-121.358;2022-07-29T11:09:18;100620.03;;;25.64
49785;BMP280;35679;38.732;-121.358;2022-07-29T11:15:26;100612.19;;;25.62
49785;BMP280;35679;38.732;-121.358;2022-07-29T11:18:18;100627.84;;;25.60
49785;BMP280;35679;38.732;-121.358;2022-07-29T11:21:37;100627.81;;;25.45
49785;BMP280;35679;38.732;-121.358;2022-07-29T11:25:14;100636.50;;;23.23
49785;BMP280;35679;38.732;-121.358;2022-07-29T11:28:19;100631.50;;;22.73
49785;BMP280;35679;38.732;-121.358;2022-07-29T11:31:12;100634.78;;;22.96
49785;BMP280;35679;38.732;-121.358;2022-07-29T11:34:36;100641.56;;;22.28
49785;BMP280;35679;38.732;-121.358;2022-07-29T11:37:29;100634.84;;;21.98
49785;BMP280;35679;38.732;-121.358;2022-07-29T11:40:29;100633.28;;;21.85
49785;BMP280;35679;38.732;-121.358;2022-07-29T11:43:48;100638.03;;;22.11
49785;BMP280;35679;38.732;-121.358;2022-07-29T11:46:50;100651.28;;;21.57
49785;BMP280;35679;38.732;-121.358;2022-07-29T11:49:44;100639.00;;;22.05
49785;BMP280;35679;38.732;-121.358;2022-07-29T11:52:40;100644.72;;;21.81
49785;BMP280;35679;38.732;-121.358;2022-07-29T11:55:56;100650.66;;;21.67
49785;BMP280;35679;38.732;-121.358;2022-07-29T11:58:46;100649.75;;;21.50
49785;BMP280;35679;38.732;-121.358;2022-07-29T12:01:36;100654.06;;;21.90
49785;BMP280;35679;38.732;-121.358;2022-07-29T12:04:25;100664.53;;;21.24
49785;BMP280;35679;38.732;-121.358;2022-07-29T12:07:28;100672.84;;;21.00
49785;BMP280;35679;38.732;-121.358;2022-07-29T12:10:22;100660.25;;;21.51
49785;BMP280;35679;38.732;-121.358;2022-07-29T12:13:20;100665.56;;;21.23
49785;BMP280;35679;38.732;-121.358;2022-07-29T12:16:37;100671.81;;;21.12
49785;BMP280;35679;38.732;-121.358;2022-07-29T12:19:27;100668.84;;;21.25
49785;BMP280;35679;38.732;-121.358;2022-07-29T12:25:15;100663.38;;;21.20
49785;BMP280;35679;38.732;-121.358;2022-07-29T12:28:21;100672.13;;;20.70
49785;BMP280;35679;38.732;-121.358;2022-07-29T12:31:15;100664.72;;;21.34
49785;BMP280;35679;38.732;-121.358;2022-07-29T12:34:27;100665.59;;;21.12
49785;BMP280;35679;38.732;-121.358;2022-07-29T12:37:18;100667.16;;;20.97
49785;BMP280;35679;38.732;-121.358;2022-07-29T12:40:27;100664.94;;;21.05
49785;BMP280;35679;38.732;-121.358;2022-07-29T12:43:21;100674.72;;;21.00
49785;BMP280;35679;38.732;-121.358;2022-07-29T12:46:13;100680.91;;;20.66
49785;BMP280;35679;38.732;-121.358;2022-07-29T12:49:04;100674.03;;;20.58
49785;BMP280;35679;38.732;-121.358;2022-07-29T12:51:53;100680.56;;;20.97
49785;BMP280;35679;38.732;-121.358;2022-07-29T12:54:49;100673.78;;;20.71
49785;BMP280;35679;38.732;-121.358;2022-07-29T12:57:49;100671.59;;;20.80
49785;BMP280;35679;38.732;-121.358;2022-07-29T13:00:42;100683.66;;;20.48
49785;BMP280;35679;38.732;-121.358;2022-07-29T13:03:57;100686.47;;;20.53
49785;BMP280;35679;38.732;-121.358;2022-07-29T13:06:58;100686.72;;;20.63
49785;BMP280;35679;38.732;-121.358;2022-07-29T13:09:51;100674.00;;;20.36
49785;BMP280;35679;38.732;-121.358;2022-07-29T13:13:06;100677.38;;;20.42
49785;BMP280;35679;38.732;-121.358;2022-07-29T13:16:07;100675.81;;;20.12
49785;BMP280;35679;38.732;-121.358;2022-07-29T13:19:32;100681.94;;;20.65
49785;BMP280;35679;38.732;-121.358;2022-07-29T13:22:23;100686.94;;;20.61
49785;BMP280;35679;38.732;-121.358;2022-07-29T13:25:13;100687.03;;;20.32
49785;BMP280;35679;38.732;-121.358;2022-07-29T13:28:02;100690.06;;;20.36
49785;BMP280;35679;38.732;-121.358;2022-07-29T13:30:52;100694.28;;;20.02
49785;BMP280;35679;38.732;-121.358;2022-07-29T13:33:42;100694.59;;;19.94
49785;BMP280;35679;38.732;-121.358;2022-07-29T13:36:31;100693.91;;;20.28
49785;BMP280;35679;38.732;-121.358;2022-07-29T13:39:20;100689.84;;;20.48
49785;BMP280;35679;38.732;-121.358;2022-07-29T13:42:10;100691.75;;;20.07
49785;BMP280;35679;38.732;-121.358;2022-07-29T13:45:02;100698.34;;;19.93
49785;BMP280;35679;38.732;-121.358;2022-07-29T13:47:52;100698.13;;;20.47
49785;BMP280;35679;38.732;-121.358;2022-07-29T13:50:41;100704.94;;;19.91
49785;BMP280;35679;38.732;-121.358;2022-07-29T13:53:30;100702.00;;;20.62
49785;BMP280;35679;38.732;-121.358;2022-07-29T13:56:21;100703.03;;;21.18
49785;BMP280;35679;38.732;-121.358;2022-07-29T13:59:10;100720.84;;;21.47
49785;BMP280;35679;38.732;-121.358;2022-07-29T14:01:59;100715.31;;;21.65
49785;BMP280;35679;38.732;-121.358;2022-07-29T14:04:49;100718.22;;;21.75
49785;BMP280;35679;38.732;-121.358;2022-07-29T14:07:38;100732.31;;;21.82
49785;BMP280;35679;38.732;-121.358;2022-07-29T14:10:28;100730.22;;;21.84
49785;BMP280;35679;38.732;-121.358;2022-07-29T14:13:17;100730.59;;;22.04
49785;BMP280;35679;38.732;-121.358;2022-07-29T14:16:13;100736.16;;;22.14
49785;BMP280;35679;38.732;-121.358;2022-07-29T14:19:02;100732.84;;;22.23
49785;BMP280;35679;38.732;-121.358;2022-07-29T14:21:54;100731.53;;;22.26
49785;BMP280;35679;38.732;-121.358;2022-07-29T14:24:45;100735.41;;;22.30
49785;BMP280;35679;38.732;-121.358;2022-07-29T14:27:34;100740.38;;;22.38
49785;BMP280;35679;38.732;-121.358;2022-07-29T14:30:25;100736.16;;;22.42
49785;BMP280;35679;38.732;-121.358;2022-07-29T14:33:14;100739.91;;;22.41
49785;BMP280;35679;38.732;-121.358;2022-07-29T14:36:04;100745.13;;;22.47
49785;BMP280;35679;38.732;-121.358;2022-07-29T14:38:54;100747.88;;;22.36
49785;BMP280;35679;38.732;-121.358;2022-07-29T14:41:44;100740.00;;;22.45
49785;BMP280;35679;38.732;-121.358;2022-07-29T14:44:35;100742.94;;;22.44
49785;BMP280;35679;38.732;-121.358;2022-07-29T14:47:24;100748.72;;;22.52
49785;BMP280;35679;38.732;-121.358;2022-07-29T14:50:13;100746.84;;;22.53
49785;BMP280;35679;38.732;-121.358;2022-07-29T14:53:09;100759.56;;;22.57
49785;BMP280;35679;38.732;-121.358;2022-07-29T14:56:00;100764.09;;;22.57
49785;BMP280;35679;38.732;-121.358;2022-07-29T14:59:10;100765.56;;;22.64
49785;BMP280;35679;38.732;-121.358;2022-07-29T15:01:59;100758.69;;;22.68
49785;BMP280;35679;38.732;-121.358;2022-07-29T15:04:49;100758.19;;;22.71
49785;BMP280;35679;38.732;-121.358;2022-07-29T15:07:38;100759.22;;;22.70
49785;BMP280;35679;38.732;-121.358;2022-07-29T15:10:28;100767.13;;;22.44
49785;BMP280;35679;38.732;-121.358;2022-07-29T15:13:17;100778.41;;;22.30
49785;BMP280;35679;38.732;-121.358;2022-07-29T15:16:07;100777.75;;;22.11
49785;BMP280;35679;38.732;-121.358;2022-07-29T15:18:57;100775.56;;;22.08
49785;BMP280;35679;38.732;-121.358;2022-07-29T15:21:48;100786.31;;;22.08
49785;BMP280;35679;38.732;-121.358;2022-07-29T15:24:37;100776.28;;;22.04
49785;BMP280;35679;38.732;-121.358;2022-07-29T15:27:27;100777.66;;;22.06
49785;BMP280;35679;38.732;-121.358;2022-07-29T15:30:16;100777.91;;;22.05
49785;BMP280;35679;38.732;-121.358;2022-07-29T15:33:20;100783.84;;;22.07
49785;BMP280;35679;38.732;-121.358;2022-07-29T15:36:10;100778.91;;;22.15
49785;BMP280;35679;38.732;-121.358;2022-07-29T15:39:21;100774.28;;;22.11
49785;BMP280;35679;38.732;-121.358;2022-07-29T15:42:11;100771.81;;;21.81
49785;BMP280;35679;38.732;-121.358;2022-07-29T15:45:00;100777.56;;;21.51
49785;BMP280;35679;38.732;-121.358;2022-07-29T15:47:51;100773.25;;;21.50
49785;BMP280;35679;38.732;-121.358;2022-07-29T15:50:40;100780.84;;;21.41
49785;BMP280;35679;38.732;-121.358;2022-07-29T15:53:34;100783.75;;;21.63
49785;BMP280;35679;38.732;-121.358;2022-07-29T15:56:23;100790.75;;;21.75
49785;BMP280;35679;38.732;-121.358;2022-07-29T15:59:13;100781.06;;;22.02
49785;BMP280;35679;38.732;-121.358;2022-07-29T16:02:09;100783.78;;;22.30
49785;BMP280;35679;38.732;-121.358;2022-07-29T16:05:00;100786.41;;;22.41
49785;BMP280;35679;38.732;-121.358;2022-07-29T16:07:49;100784.47;;;22.53
49785;BMP280;35679;38.732;-121.358;2022-07-29T16:10:39;100773.56;;;22.59
49785;BMP280;35679;38.732;-121.358;2022-07-29T16:13:28;100776.03;;;22.77
49785;BMP280;35679;38.732;-121.358;2022-07-29T16:16:18;100774.22;;;22.83
49785;BMP280;35679;38.732;-121.358;2022-07-29T16:19:07;100776.44;;;22.86
49785;BMP280;35679;38.732;-121.358;2022-07-29T16:21:57;100778.97;;;22.92